createdAt,value
2017-09-24T00:00:51.258Z,80.40
2017-09-24T00:03:19.609Z,80.90
2017-09-24T00:05:47.151Z,80.80
2017-09-24T00:08:17.252Z,80.80
2017-09-24T00:10:44.816Z,80.90
2017-09-24T00:13:12.351Z,80.80
2017-09-24T00:15:39.888Z,80.50
2017-09-24T00:18:08.347Z,80.10
2017-09-24T00:20:35.888Z,80.00
2017-09-24T00:23:03.418Z,80.20
2017-09-24T00:25:31.422Z,80.60
2017-09-24T00:27:58.952Z,80.90
2017-09-24T00:30:26.488Z,80.90
2017-09-24T00:32:54.824Z,80.70
2017-09-24T00:35:22.359Z,80.70
2017-09-24T00:37:49.894Z,80.70
2017-09-24T00:40:17.469Z,80.80
2017-09-24T00:42:45.020Z,80.80
2017-09-24T00:45:12.552Z,80.60
2017-09-24T00:47:40.906Z,80.40
2017-09-24T00:50:08.446Z,80.40
2017-09-24T00:52:35.983Z,80.40
2017-09-24T00:55:03.551Z,80.40
2017-09-24T00:57:31.091Z,80.20
2017-09-24T00:59:58.626Z,80.30
2017-09-24T01:02:26.186Z,80.10
2017-09-24T01:04:53.718Z,80.20
2017-09-24T01:07:21.254Z,79.80
2017-09-24T01:09:48.840Z,79.10
2017-09-24T01:12:16.708Z,79.30
2017-09-24T01:14:44.238Z,79.50
2017-09-24T01:17:11.804Z,80.00
2017-09-24T01:19:39.339Z,80.50
2017-09-24T01:22:06.871Z,80.60
2017-09-24T01:24:34.452Z,80.40
2017-09-24T01:27:02.514Z,80.40
2017-09-24T01:29:30.814Z,80.40
2017-09-24T01:31:58.394Z,80.30
2017-09-24T01:34:26.692Z,79.30
2017-09-24T01:36:54.226Z,79.30
2017-09-24T01:39:21.803Z,79.40
2017-09-24T01:41:49.337Z,79.20
2017-09-24T01:44:16.874Z,79.70
2017-09-24T01:46:44.436Z,79.50
2017-09-24T01:49:13.668Z,79.30
2017-09-24T01:51:41.202Z,79.30
2017-09-24T01:54:09.064Z,79.20
2017-09-24T01:56:36.618Z,78.80
2017-09-24T01:59:04.157Z,79.20
2017-09-24T02:01:31.729Z,79.80
2017-09-24T02:03:59.259Z,79.70
2017-09-24T02:06:26.795Z,79.90
2017-09-24T02:08:54.363Z,81.00
2017-09-24T02:11:21.905Z,80.00
2017-09-24T02:13:49.437Z,80.70
2017-09-24T02:16:17.019Z,80.30
2017-09-24T02:18:44.563Z,80.60
2017-09-24T02:21:12.099Z,80.20
2017-09-24T02:23:39.663Z,80.50
2017-09-24T02:26:07.966Z,80.60
2017-09-24T02:28:36.084Z,80.60
2017-09-24T02:31:03.659Z,81.00
2017-09-24T02:33:31.191Z,81.20
2017-09-24T02:35:58.724Z,81.20
2017-09-24T02:38:26.327Z,81.40
2017-09-24T02:40:53.863Z,81.10
2017-09-24T02:43:21.391Z,80.60
2017-09-24T02:45:49.903Z,80.70
2017-09-24T02:48:17.443Z,80.70
2017-09-24T02:50:44.974Z,80.60
2017-09-24T02:53:12.539Z,80.70
2017-09-24T02:55:40.831Z,80.00
2017-09-24T02:58:08.376Z,80.10
2017-09-24T03:00:36.727Z,80.10
2017-09-24T03:03:04.267Z,79.90
2017-09-24T03:05:31.798Z,80.00
2017-09-24T03:07:59.373Z,79.80
2017-09-24T03:10:27.679Z,79.60
2017-09-24T03:12:55.215Z,79.60
2017-09-24T03:15:22.775Z,79.70
2017-09-24T03:17:50.324Z,79.50
2017-09-24T03:20:17.858Z,79.70
2017-09-24T03:22:45.451Z,80.00
2017-09-24T03:25:15.384Z,80.10
2017-09-24T03:27:42.931Z,80.10
2017-09-24T03:30:10.799Z,80.50
2017-09-24T03:32:39.096Z,81.10
2017-09-24T03:35:06.631Z,81.10
2017-09-24T03:37:34.215Z,81.30
2017-09-24T03:40:01.753Z,81.80
2017-09-24T03:42:29.299Z,81.80
2017-09-24T03:44:56.887Z,82.70
2017-09-24T03:47:24.420Z,83.80
2017-09-24T03:49:51.952Z,83.60
2017-09-24T03:52:19.506Z,83.80
2017-09-24T03:54:47.808Z,82.50
2017-09-24T03:57:16.456Z,82.50
2017-09-24T03:59:44.019Z,82.30
2017-09-24T04:02:11.547Z,82.50
2017-09-24T04:04:39.080Z,82.60
2017-09-24T04:07:06.671Z,82.40
2017-09-24T04:09:34.209Z,82.60
2017-09-24T04:12:01.743Z,84.00
2017-09-24T04:14:29.387Z,84.30
2017-09-24T04:16:56.972Z,84.30
2017-09-24T04:19:24.508Z,84.70
2017-09-24T04:21:52.077Z,84.50
2017-09-24T04:24:20.366Z,84.70
2017-09-24T04:26:48.664Z,84.70
2017-09-24T04:29:16.515Z,84.70
2017-09-24T04:31:44.308Z,84.30
2017-09-24T04:34:11.839Z,84.20
2017-09-24T04:36:39.411Z,84.30
2017-09-24T04:39:06.939Z,84.70
2017-09-24T04:41:34.463Z,84.50
2017-09-24T04:44:02.059Z,84.50
2017-09-24T04:46:29.591Z,84.30
2017-09-24T04:48:57.129Z,84.10
2017-09-24T04:51:24.712Z,83.80
2017-09-24T04:53:52.242Z,83.80
2017-09-24T04:56:19.776Z,83.80
2017-09-24T04:58:47.331Z,83.30
2017-09-24T05:01:16.547Z,83.20
2017-09-24T05:03:44.079Z,83.20
2017-09-24T05:06:12.406Z,82.90
2017-09-24T05:08:39.936Z,82.80
2017-09-24T05:11:07.472Z,82.80
2017-09-24T05:13:35.047Z,83.40
2017-09-24T05:16:02.579Z,83.60
2017-09-24T05:18:30.102Z,83.00
2017-09-24T05:20:57.651Z,83.00
2017-09-24T05:23:25.183Z,83.00
2017-09-24T05:25:52.712Z,82.80
2017-09-24T05:28:20.269Z,82.50
2017-09-24T05:30:47.798Z,82.20
2017-09-24T05:33:17.141Z,82.10
2017-09-24T05:35:44.747Z,82.10
2017-09-24T05:38:12.275Z,82.10
2017-09-24T05:40:39.817Z,82.20
2017-09-24T05:43:07.384Z,81.10
2017-09-24T05:45:35.686Z,80.30
2017-09-24T05:48:03.232Z,80.20
2017-09-24T05:50:31.767Z,79.80
2017-09-24T05:52:59.295Z,80.40
2017-09-24T05:55:26.831Z,79.80
2017-09-24T05:57:55.324Z,79.80
2017-09-24T06:00:23.614Z,80.20
2017-09-24T06:02:51.147Z,80.20
2017-09-24T06:05:19.470Z,79.80
2017-09-24T06:07:47.011Z,79.80
2017-09-24T06:10:16.321Z,80.30
2017-09-24T06:12:44.003Z,80.40
2017-09-24T06:15:16.523Z,80.00
2017-09-24T06:17:44.058Z,80.30
2017-09-24T06:20:11.635Z,80.10
2017-09-24T06:22:39.175Z,79.80
2017-09-24T06:25:06.816Z,79.80
2017-09-24T06:27:34.522Z,80.50
2017-09-24T06:30:02.857Z,80.20
2017-09-24T06:32:30.404Z,80.10
2017-09-24T06:34:58.603Z,79.90
2017-09-24T06:37:26.140Z,80.10
2017-09-24T06:39:53.680Z,79.40
2017-09-24T06:42:21.269Z,79.40
2017-09-24T06:44:48.799Z,78.50
2017-09-24T06:47:17.261Z,78.40
2017-09-24T06:49:44.851Z,78.40
2017-09-24T06:52:12.647Z,78.80
2017-09-24T06:54:40.238Z,78.00
2017-09-24T06:57:07.935Z,78.00
2017-09-24T06:59:35.692Z,78.20
2017-09-24T07:02:03.358Z,77.40
2017-09-24T07:04:31.111Z,76.60
2017-09-24T07:06:58.660Z,76.00
2017-09-24T07:09:26.968Z,68.30
2017-09-24T07:11:54.523Z,68.20
2017-09-24T07:14:22.051Z,63.30
2017-09-24T07:16:50.355Z,55.70
2017-09-24T07:19:17.932Z,55.40
2017-09-24T07:21:45.467Z,54.60
2017-09-24T07:24:25.519Z,51.40
2017-09-24T07:29:36.931Z,47.10
2017-09-24T07:32:04.470Z,44.50
2017-09-24T07:34:32.075Z,43.40
2017-09-24T07:37:00.187Z,42.00
2017-09-24T07:39:27.722Z,40.70
2017-09-24T07:41:55.279Z,40.40
2017-09-24T07:44:22.859Z,39.70
2017-09-24T07:46:50.390Z,38.60
2017-09-24T07:49:17.924Z,36.90
2017-09-24T07:51:45.495Z,36.10
2017-09-24T07:54:14.479Z,36.60
2017-09-24T07:56:42.012Z,36.60
2017-09-24T07:59:10.397Z,34.90
2017-09-24T08:01:37.963Z,34.80
2017-09-24T08:04:05.500Z,34.50
2017-09-24T08:06:33.087Z,33.40
2017-09-24T08:09:00.623Z,33.20
2017-09-24T08:11:28.263Z,32.10
2017-09-24T08:13:55.820Z,32.90
2017-09-24T08:16:23.359Z,32.10
2017-09-24T08:18:50.895Z,32.20
2017-09-24T08:21:18.461Z,31.90
2017-09-24T08:23:45.991Z,32.10
2017-09-24T08:26:24.368Z,31.40
2017-09-24T08:31:37.034Z,30.10
2017-09-24T08:34:04.579Z,30.60
2017-09-24T08:36:32.132Z,29.40
2017-09-24T08:39:01.099Z,28.70
2017-09-24T08:41:29.054Z,28.20
2017-09-24T08:43:56.827Z,28.20
2017-09-24T08:46:36.205Z,28.30
2017-09-24T08:49:06.025Z,27.40
2017-09-24T08:51:37.407Z,28.00
2017-09-24T08:54:07.131Z,28.00
2017-09-24T08:56:36.824Z,29.00
2017-09-24T08:59:04.534Z,28.20
2017-09-24T09:01:32.218Z,28.00
2017-09-24T09:03:59.792Z,27.90
2017-09-24T09:06:31.165Z,26.00
2017-09-24T09:09:00.368Z,26.00
2017-09-24T09:11:28.125Z,26.50
2017-09-24T09:13:57.695Z,26.30
2017-09-24T09:16:25.967Z,25.80
2017-09-24T09:18:54.740Z,25.20
2017-09-24T09:21:34.248Z,24.80
2017-09-24T09:24:01.807Z,24.30
2017-09-24T09:26:30.632Z,24.10
2017-09-24T09:28:59.164Z,24.10
2017-09-24T09:31:26.803Z,24.10
2017-09-24T09:33:55.218Z,24.20
2017-09-24T09:36:23.521Z,24.10
2017-09-24T09:38:54.902Z,25.20
2017-09-24T09:41:25.613Z,25.70
2017-09-24T09:43:53.251Z,25.60
2017-09-24T09:49:27.970Z,25.00
2017-09-24T09:51:55.557Z,26.80
2017-09-24T09:54:23.867Z,27.80
2017-09-24T09:56:51.427Z,27.80
2017-09-24T09:59:19.157Z,27.10
2017-09-24T10:01:46.701Z,27.20
2017-09-24T10:04:16.560Z,28.20
2017-09-24T10:06:47.095Z,28.20
2017-09-24T10:09:28.066Z,28.70
2017-09-24T10:11:55.623Z,28.60
2017-09-24T10:14:23.940Z,33.10
2017-09-24T10:16:52.286Z,34.20
2017-09-24T10:19:20.040Z,34.10
2017-09-24T10:21:48.294Z,34.60
2017-09-24T10:24:16.422Z,34.70
2017-09-24T10:26:43.997Z,36.60
2017-09-24T10:29:24.044Z,40.70
2017-09-24T10:32:09.179Z,42.10
2017-09-24T10:34:36.719Z,42.00
2017-09-24T10:37:04.251Z,45.80
2017-09-24T10:39:31.908Z,45.00
2017-09-24T10:41:59.863Z,45.40
2017-09-24T10:44:27.425Z,46.80
2017-09-24T10:46:55.761Z,46.10
2017-09-24T10:49:24.158Z,46.10
2017-09-24T10:51:51.712Z,45.90
2017-09-24T10:54:19.310Z,44.10
2017-09-24T10:56:47.623Z,45.20
2017-09-24T10:59:16.313Z,44.90
2017-09-24T11:01:43.945Z,44.80
2017-09-24T11:04:11.517Z,43.00
2017-09-24T11:06:39.086Z,42.70
2017-09-24T11:09:06.712Z,44.00
2017-09-24T11:11:36.263Z,44.70
2017-09-24T11:14:03.856Z,45.20
2017-09-24T11:16:31.498Z,47.00
2017-09-24T11:18:59.076Z,46.30
2017-09-24T11:21:26.656Z,47.00
2017-09-24T11:23:55.032Z,48.60
2017-09-24T11:26:22.582Z,48.60
2017-09-24T11:28:50.922Z,48.40
2017-09-24T11:31:18.510Z,48.30
2017-09-24T11:33:46.081Z,49.50
2017-09-24T11:36:16.265Z,50.80
2017-09-24T11:38:43.835Z,50.70
2017-09-24T11:41:11.402Z,47.90
2017-09-24T11:43:39.114Z,47.50
2017-09-24T11:46:07.496Z,46.80
2017-09-24T11:48:35.057Z,46.60
2017-09-24T11:51:02.626Z,47.80
2017-09-24T11:53:30.220Z,49.60
2017-09-24T11:55:57.771Z,48.10
2017-09-24T11:58:25.340Z,47.60
2017-09-24T12:00:52.916Z,46.20
2017-09-24T12:03:20.483Z,46.20
2017-09-24T12:05:48.048Z,44.80
2017-09-24T12:08:16.509Z,43.10
2017-09-24T12:10:44.081Z,45.50
2017-09-24T12:13:11.643Z,46.90
2017-09-24T12:15:39.231Z,48.80
2017-09-24T12:18:07.531Z,47.10
2017-09-24T12:20:35.071Z,47.10
2017-09-24T12:23:03.512Z,47.50
2017-09-24T12:25:31.077Z,47.40
2017-09-24T12:27:58.620Z,47.50
2017-09-24T12:30:26.220Z,47.40
2017-09-24T12:32:53.762Z,47.70
2017-09-24T12:35:21.296Z,49.20
2017-09-24T12:37:48.879Z,50.10
2017-09-24T12:40:17.323Z,49.30
2017-09-24T12:42:44.861Z,49.10
2017-09-24T12:45:12.423Z,48.60
2017-09-24T12:47:39.958Z,47.30
2017-09-24T12:50:08.255Z,47.30
2017-09-24T12:52:35.864Z,47.20
2017-09-24T12:55:03.399Z,47.50
2017-09-24T12:57:30.939Z,46.20
2017-09-24T12:59:58.515Z,45.00
2017-09-24T13:02:26.060Z,45.90
2017-09-24T13:04:53.604Z,44.80
2017-09-24T13:07:21.932Z,43.70
2017-09-24T13:09:49.472Z,43.70
2017-09-24T13:12:17.004Z,45.60
2017-09-24T13:14:45.059Z,46.20
2017-09-24T13:17:13.515Z,44.70
2017-09-24T13:19:41.047Z,46.80
2017-09-24T13:22:08.738Z,47.10
2017-09-24T13:24:36.293Z,46.40
2017-09-24T13:27:03.831Z,47.50
2017-09-24T13:29:31.457Z,47.40
2017-09-24T13:31:59.037Z,47.50
2017-09-24T13:34:26.592Z,47.00
2017-09-24T13:36:54.192Z,48.80
2017-09-24T13:39:21.724Z,48.90
2017-09-24T13:41:49.315Z,49.30
2017-09-24T13:44:16.875Z,50.00
2017-09-24T13:46:44.423Z,49.00
2017-09-24T13:49:11.959Z,49.10
2017-09-24T13:51:39.519Z,50.60
2017-09-24T13:54:07.059Z,51.20
2017-09-24T13:56:34.601Z,51.80
2017-09-24T13:59:02.444Z,51.50
2017-09-24T14:01:29.980Z,51.20
2017-09-24T14:03:57.511Z,50.80
2017-09-24T14:06:25.851Z,48.70
2017-09-24T14:08:53.395Z,48.60
2017-09-24T14:11:20.929Z,48.30
2017-09-24T14:13:49.251Z,47.00
2017-09-24T14:16:16.779Z,47.00
2017-09-24T14:18:44.316Z,46.90
2017-09-24T14:21:11.903Z,47.30
2017-09-24T14:23:39.468Z,49.50
2017-09-24T14:26:07.091Z,47.80
2017-09-24T14:28:34.712Z,47.80
2017-09-24T14:31:02.250Z,44.20
2017-09-24T14:33:29.800Z,44.00
2017-09-24T14:35:57.410Z,45.00
2017-09-24T14:38:25.758Z,47.40
2017-09-24T14:40:53.295Z,47.00
2017-09-24T14:43:20.919Z,46.20
2017-09-24T14:45:48.459Z,45.40
2017-09-24T14:48:17.172Z,44.30
2017-09-24T14:50:45.511Z,48.90
2017-09-24T14:53:30.164Z,50.00
2017-09-24T14:58:42.628Z,52.20
2017-09-24T15:01:10.978Z,52.50
2017-09-24T15:03:38.586Z,52.50
2017-09-24T15:06:06.152Z,52.20
2017-09-24T15:08:33.700Z,52.90
2017-09-24T15:11:01.233Z,52.80
2017-09-24T15:13:28.832Z,53.30
2017-09-24T15:15:56.364Z,53.00
2017-09-24T15:18:24.840Z,52.70
2017-09-24T15:20:53.207Z,52.60
2017-09-24T15:23:21.500Z,52.60
2017-09-24T15:25:52.206Z,53.20
2017-09-24T15:28:19.787Z,52.80
2017-09-24T15:30:47.571Z,52.80
2017-09-24T15:33:17.198Z,53.10
2017-09-24T15:35:44.814Z,53.00
2017-09-24T15:38:12.348Z,53.80
2017-09-24T15:40:39.879Z,53.90
2017-09-24T15:43:07.467Z,54.60
2017-09-24T15:45:35.012Z,54.10
2017-09-24T15:48:02.629Z,54.00
2017-09-24T15:50:30.419Z,54.20
2017-09-24T15:52:57.972Z,54.30
2017-09-24T15:55:25.514Z,54.50
2017-09-24T15:57:53.851Z,54.50
2017-09-24T16:00:21.411Z,54.40
2017-09-24T16:02:48.948Z,54.50
2017-09-24T16:05:17.333Z,54.70
2017-09-24T16:07:44.896Z,55.20
2017-09-24T16:10:12.440Z,55.20
2017-09-24T16:12:40.000Z,55.30
2017-09-24T16:15:07.595Z,55.40
2017-09-24T16:17:35.148Z,55.60
2017-09-24T16:20:02.720Z,56.20
2017-09-24T16:22:30.255Z,56.40
2017-09-24T16:24:57.812Z,56.90
2017-09-24T16:27:25.421Z,57.40
2017-09-24T16:29:53.764Z,57.50
2017-09-24T16:32:21.644Z,57.50
2017-09-24T16:34:49.253Z,57.40
2017-09-24T16:37:17.553Z,58.00
2017-09-24T16:39:45.087Z,58.00
2017-09-24T16:42:14.379Z,58.20
2017-09-24T16:44:42.682Z,58.40
2017-09-24T16:47:10.213Z,58.40
2017-09-24T16:49:38.562Z,59.70
2017-09-24T16:52:06.692Z,59.70
2017-09-24T16:54:34.231Z,60.50
2017-09-24T16:57:02.581Z,61.10
2017-09-24T16:59:30.189Z,61.10
2017-09-24T17:01:57.755Z,61.60
2017-09-24T17:04:25.322Z,61.60
2017-09-24T17:06:52.857Z,61.90
2017-09-24T17:09:20.391Z,61.80
2017-09-24T17:11:48.922Z,62.30
2017-09-24T17:14:16.640Z,62.20
2017-09-24T17:16:44.187Z,62.40
2017-09-24T17:19:11.747Z,62.50
2017-09-24T17:21:39.288Z,62.50
2017-09-24T17:24:06.835Z,62.40
2017-09-24T17:26:34.399Z,62.10
2017-09-24T17:29:01.931Z,62.50
2017-09-24T17:31:29.467Z,62.50
2017-09-24T17:33:57.863Z,62.80
2017-09-24T17:36:25.403Z,62.80
2017-09-24T17:38:53.724Z,63.20
2017-09-24T17:41:21.285Z,62.40
2017-09-24T17:43:48.819Z,61.90
2017-09-24T17:46:16.403Z,62.60
2017-09-24T17:48:45.651Z,62.80
2017-09-24T17:51:15.418Z,65.70
2017-09-24T17:53:43.147Z,65.70
2017-09-24T17:56:11.501Z,66.80
2017-09-24T17:58:39.035Z,66.70
2017-09-24T18:01:06.581Z,67.00
2017-09-24T18:03:34.143Z,66.50
2017-09-24T18:06:01.693Z,66.60
2017-09-24T18:08:29.229Z,67.00
2017-09-24T18:10:57.575Z,66.80
2017-09-24T18:13:25.120Z,66.60
2017-09-24T18:15:52.651Z,66.40
2017-09-24T18:18:21.020Z,66.20
2017-09-24T18:20:48.551Z,66.10
2017-09-24T18:23:16.523Z,66.00
2017-09-24T18:25:44.082Z,65.40
2017-09-24T18:28:12.378Z,67.00
2017-09-24T18:30:39.919Z,66.80
2017-09-24T18:33:08.247Z,67.40
2017-09-24T18:35:35.782Z,67.30
2017-09-24T18:38:03.395Z,67.40
2017-09-24T18:40:30.976Z,67.50
2017-09-24T18:42:59.283Z,67.80
2017-09-24T18:45:26.811Z,67.80
2017-09-24T18:47:54.379Z,68.10
2017-09-24T18:50:21.910Z,68.30
2017-09-24T18:52:49.447Z,68.50
2017-09-24T18:55:17.534Z,68.60
2017-09-24T18:57:45.067Z,68.40
2017-09-24T19:00:12.607Z,67.50
2017-09-24T19:02:40.196Z,67.00
2017-09-24T19:05:07.740Z,66.50
2017-09-24T19:07:35.386Z,66.00
2017-09-24T19:10:03.260Z,65.90
2017-09-24T19:12:30.872Z,66.50
2017-09-24T19:14:58.427Z,67.00
2017-09-24T19:17:26.028Z,66.80
2017-09-24T19:19:53.636Z,68.00
2017-09-24T19:22:21.174Z,66.00
2017-09-24T19:24:49.166Z,66.70
2017-09-24T19:27:16.734Z,66.90
2017-09-24T19:29:44.478Z,67.40
2017-09-24T19:32:12.058Z,67.40
2017-09-24T19:34:39.659Z,68.10
2017-09-24T19:37:08.022Z,68.10
2017-09-24T19:39:35.784Z,68.00
2017-09-24T19:42:03.411Z,68.60
2017-09-24T19:44:31.028Z,69.20
2017-09-24T19:46:58.691Z,69.70
2017-09-24T19:49:26.263Z,70.40
2017-09-24T19:51:53.958Z,70.70
2017-09-24T19:54:21.745Z,70.80
2017-09-24T19:56:50.500Z,71.20
2017-09-24T19:59:18.136Z,71.10
2017-09-24T20:01:46.491Z,70.50
2017-09-24T20:04:16.497Z,70.70
2017-09-24T20:06:44.152Z,70.70
2017-09-24T20:09:11.745Z,71.20
2017-09-24T20:11:40.051Z,71.70
2017-09-24T20:14:07.585Z,71.50
2017-09-24T20:16:35.945Z,72.10
2017-09-24T20:19:03.479Z,72.00
2017-09-24T20:21:31.166Z,72.50
2017-09-24T20:23:59.796Z,72.90
2017-09-24T20:26:28.146Z,73.30
2017-09-24T20:28:55.709Z,73.20
2017-09-24T20:31:24.900Z,74.30
2017-09-24T20:33:53.237Z,74.40
2017-09-24T20:36:20.788Z,74.40
2017-09-24T20:38:48.356Z,75.00
2017-09-24T20:41:17.241Z,75.30
2017-09-24T20:43:44.831Z,75.30
2017-09-24T20:46:12.397Z,75.20
2017-09-24T20:48:39.952Z,74.80
2017-09-24T20:51:07.626Z,74.80
2017-09-24T20:53:36.004Z,75.20
2017-09-24T20:56:03.603Z,75.20
2017-09-24T20:58:31.152Z,75.60
2017-09-24T21:00:58.725Z,75.40
2017-09-24T21:03:26.274Z,76.00
2017-09-24T21:05:53.822Z,76.20
2017-09-24T21:08:21.443Z,76.30
2017-09-24T21:10:49.245Z,75.60
2017-09-24T21:13:17.553Z,75.70
2017-09-24T21:15:45.936Z,75.70
2017-09-24T21:18:15.323Z,75.70
2017-09-24T21:20:42.859Z,75.70
2017-09-24T21:23:10.435Z,76.10
2017-09-24T21:25:37.971Z,75.90
2017-09-24T21:28:06.271Z,76.10
2017-09-24T21:30:33.833Z,76.10
2017-09-24T21:33:01.363Z,75.90
2017-09-24T21:35:28.895Z,76.20
2017-09-24T21:37:56.475Z,76.20
2017-09-24T21:40:24.007Z,76.40
2017-09-24T21:42:51.549Z,77.00
2017-09-24T21:45:19.109Z,77.00
2017-09-24T21:47:46.643Z,77.80
2017-09-24T21:50:24.528Z,77.30
2017-09-24T21:56:52.211Z,77.70
2017-09-24T21:59:20.204Z,78.00
2017-09-24T22:01:47.746Z,77.70
2017-09-24T22:04:16.435Z,77.50
2017-09-24T22:06:44.734Z,76.70
2017-09-24T22:09:12.267Z,76.70
2017-09-24T22:11:40.011Z,77.00
2017-09-24T22:14:07.557Z,77.60
2017-09-24T22:16:35.097Z,77.10
2017-09-24T22:19:02.679Z,77.40
2017-09-24T22:21:30.219Z,77.80
2017-09-24T22:23:57.755Z,77.90
2017-09-24T22:26:25.311Z,78.20
2017-09-24T22:28:53.615Z,78.50
2017-09-24T22:31:21.150Z,78.50
2017-09-24T22:33:48.707Z,79.00
2017-09-24T22:36:16.447Z,79.00
2017-09-24T22:38:43.982Z,79.00
2017-09-24T22:41:11.600Z,78.50
2017-09-24T22:43:39.141Z,78.50
2017-09-24T22:46:07.435Z,78.80
2017-09-24T22:48:34.995Z,78.60
2017-09-24T22:51:02.527Z,78.70
2017-09-24T22:53:30.056Z,78.70
2017-09-24T22:55:57.639Z,78.50
2017-09-24T22:58:25.171Z,78.50
2017-09-24T23:00:52.722Z,78.10
2017-09-24T23:03:20.299Z,78.50
2017-09-24T23:05:47.840Z,78.50
2017-09-24T23:08:17.226Z,78.20
2017-09-24T23:10:44.787Z,78.10
2017-09-24T23:13:12.323Z,77.90
2017-09-24T23:15:40.624Z,78.20
2017-09-24T23:18:08.388Z,78.10
2017-09-24T23:20:35.919Z,78.00
2017-09-24T23:23:04.217Z,78.50
2017-09-24T23:25:31.798Z,78.30
2017-09-24T23:27:59.336Z,78.60
2017-09-24T23:30:26.871Z,78.50
2017-09-24T23:32:54.428Z,78.50
2017-09-24T23:35:21.960Z,78.70
2017-09-24T23:37:49.487Z,78.80
2017-09-24T23:40:17.048Z,78.80
2017-09-24T23:42:44.579Z,79.10
2017-09-24T23:45:13.809Z,78.70
2017-09-24T23:47:41.392Z,78.50
2017-09-24T23:50:08.919Z,78.70
2017-09-24T23:52:36.464Z,78.80
2017-09-24T23:55:04.020Z,78.60
2017-09-24T23:57:32.316Z,78.20
2017-09-24T23:59:59.851Z,78.20
